sensor_id;sensor_type;location;lat;lon;timestamp;pressure;altitude;pressure_sealevel;temperature;humidity
36598;BME280;22607;49.550;11.940;2023-07-09T00:01:15;97271.13;;;19.96;62.62
36598;BME280;22607;49.550;11.940;2023-07-09T00:03:46;97268.09;;;19.73;63.27
36598;BME280;22607;49.550;11.940;2023-07-09T00:06:18;97269.91;;;19.54;63.96
36598;BME280;22607;49.550;11.940;2023-07-09T00:08:48;97273.72;;;19.39;65.99
36598;BME280;22607;49.550;11.940;2023-07-09T00:11:15;97279.06;;;19.39;65.84
36598;BME280;22607;49.550;11.940;2023-07-09T00:13:42;97285.69;;;19.30;66.23
36598;BME280;22607;49.550;11.940;2023-07-09T00:16:35;97292.59;;;19.12;70.10
36598;BME280;22607;49.550;11.940;2023-07-09T00:19:11;97293.19;;;19.14;70.45
36598;BME280;22607;49.550;11.940;2023-07-09T00:21:40;97287.34;;;19.31;67.28
36598;BME280;22607;49.550;11.940;2023-07-09T00:24:07;97288.34;;;19.30;69.05
36598;BME280;22607;49.550;11.940;2023-07-09T00:26:37;97286.50;;;19.31;69.21
36598;BME280;22607;49.550;11.940;2023-07-09T00:29:04;97289.47;;;19.15;69.50
36598;BME280;22607;49.550;11.940;2023-07-09T00:31:31;97283.41;;;19.08;68.37
36598;BME280;22607;49.550;11.940;2023-07-09T00:33:58;97277.22;;;19.14;67.85
36598;BME280;22607;49.550;11.940;2023-07-09T00:36:28;97289.22;;;19.24;68.41
36598;BME280;22607;49.550;11.940;2023-07-09T00:38:55;97294.75;;;18.90;70.49
36598;BME280;22607;49.550;11.940;2023-07-09T00:41:26;97290.03;;;18.92;70.51
36598;BME280;22607;49.550;11.940;2023-07-09T00:43:54;97286.97;;;18.88;71.17
36598;BME280;22607;49.550;11.940;2023-07-09T00:49:03;97288.34;;;18.66;71.13
36598;BME280;22607;49.550;11.940;2023-07-09T00:51:37;97296.78;;;18.56;72.22
36598;BME280;22607;49.550;11.940;2023-07-09T00:54:24;97294.56;;;18.46;73.20
36598;BME280;22607;49.550;11.940;2023-07-09T00:57:02;97294.97;;;18.56;71.41
36598;BME280;22607;49.550;11.940;2023-07-09T00:59:32;97292.81;;;18.72;68.92
36598;BME280;22607;49.550;11.940;2023-07-09T01:02:00;97290.13;;;18.79;71.45
36598;BME280;22607;49.550;11.940;2023-07-09T01:04:27;97298.69;;;18.81;72.21
36598;BME280;22607;49.550;11.940;2023-07-09T01:06:55;97302.38;;;18.80;72.08
36598;BME280;22607;49.550;11.940;2023-07-09T01:09:23;97304.50;;;18.71;74.42
36598;BME280;22607;49.550;11.940;2023-07-09T01:11:51;97313.09;;;18.66;72.35
36598;BME280;22607;49.550;11.940;2023-07-09T01:14:20;97304.38;;;18.52;75.24
36598;BME280;22607;49.550;11.940;2023-07-09T01:16:50;97306.41;;;18.57;73.61
36598;BME280;22607;49.550;11.940;2023-07-09T01:19:28;97292.78;;;18.40;74.75
36598;BME280;22607;49.550;11.940;2023-07-09T01:21:57;97305.47;;;18.38;74.39
36598;BME280;22607;49.550;11.940;2023-07-09T01:24:51;97304.88;;;18.29;79.87
36598;BME280;22607;49.550;11.940;2023-07-09T01:27:22;97290.41;;;18.11;76.80
36598;BME280;22607;49.550;11.940;2023-07-09T01:29:50;97303.88;;;18.23;74.09
36598;BME280;22607;49.550;11.940;2023-07-09T01:32:18;97295.28;;;18.21;77.19
36598;BME280;22607;49.550;11.940;2023-07-09T01:34:47;97303.47;;;18.06;78.75
36598;BME280;22607;49.550;11.940;2023-07-09T01:37:17;97280.63;;;17.98;77.98
36598;BME280;22607;49.550;11.940;2023-07-09T01:39:44;97302.91;;;18.10;76.37
36598;BME280;22607;49.550;11.940;2023-07-09T01:42:10;97295.13;;;18.09;75.79
36598;BME280;22607;49.550;11.940;2023-07-09T01:44:37;97295.53;;;18.13;76.39
36598;BME280;22607;49.550;11.940;2023-07-09T01:47:05;97295.97;;;17.89;80.18
36598;BME280;22607;49.550;11.940;2023-07-09T01:49:31;97288.84;;;17.69;82.78
36598;BME280;22607;49.550;11.940;2023-07-09T01:52:00;97288.22;;;17.81;79.23
36598;BME280;22607;49.550;11.940;2023-07-09T01:54:30;97280.66;;;17.84;79.24
36598;BME280;22607;49.550;11.940;2023-07-09T01:57:17;97286.63;;;17.66;80.65
36598;BME280;22607;49.550;11.940;2023-07-09T01:59:45;97285.59;;;17.67;80.94
36598;BME280;22607;49.550;11.940;2023-07-09T02:02:12;97301.13;;;17.77;78.42
36598;BME280;22607;49.550;11.940;2023-07-09T02:04:47;97291.31;;;17.64;80.71
36598;BME280;22607;49.550;11.940;2023-07-09T02:07:15;97304.38;;;17.52;80.83
36598;BME280;22607;49.550;11.940;2023-07-09T02:09:42;97306.06;;;17.40;81.75
36598;BME280;22607;49.550;11.940;2023-07-09T02:12:10;97302.75;;;17.51;80.90
36598;BME280;22607;49.550;11.940;2023-07-09T02:14:38;97291.53;;;17.56;82.51
36598;BME280;22607;49.550;11.940;2023-07-09T02:17:06;97293.56;;;17.40;82.10
36598;BME280;22607;49.550;11.940;2023-07-09T02:19:33;97310.31;;;17.54;81.10
36598;BME280;22607;49.550;11.940;2023-07-09T02:22:00;97309.31;;;17.55;83.44
36598;BME280;22607;49.550;11.940;2023-07-09T02:24:27;97302.75;;;17.51;83.19
36598;BME280;22607;49.550;11.940;2023-07-09T02:26:55;97307.88;;;17.19;87.22
36598;BME280;22607;49.550;11.940;2023-07-09T02:29:23;97313.72;;;16.94;87.67
36598;BME280;22607;49.550;11.940;2023-07-09T02:31:51;97318.28;;;17.14;86.77
36598;BME280;22607;49.550;11.940;2023-07-09T02:34:19;97316.22;;;17.29;82.23
36598;BME280;22607;49.550;11.940;2023-07-09T02:36:46;97308.06;;;17.24;82.85
36598;BME280;22607;49.550;11.940;2023-07-09T02:39:14;97322.78;;;17.34;83.08
36598;BME280;22607;49.550;11.940;2023-07-09T02:41:41;97312.56;;;17.17;86.14
36598;BME280;22607;49.550;11.940;2023-07-09T02:44:07;97314.53;;;16.95;89.23
36598;BME280;22607;49.550;11.940;2023-07-09T02:46:34;97322.13;;;17.04;85.78
36598;BME280;22607;49.550;11.940;2023-07-09T02:49:03;97301.06;;;16.96;84.73
36598;BME280;22607;49.550;11.940;2023-07-09T02:51:31;97325.00;;;17.10;86.69
36598;BME280;22607;49.550;11.940;2023-07-09T02:53:59;97318.66;;;17.11;85.01
36598;BME280;22607;49.550;11.940;2023-07-09T02:56:26;97318.63;;;16.97;88.78
36598;BME280;22607;49.550;11.940;2023-07-09T02:58:53;97324.78;;;17.04;87.75
36598;BME280;22607;49.550;11.940;2023-07-09T03:01:19;97327.56;;;16.83;90.84
36598;BME280;22607;49.550;11.940;2023-07-09T03:03:52;97335.91;;;16.66;93.94
36598;BME280;22607;49.550;11.940;2023-07-09T03:06:23;97334.94;;;16.87;90.87
36598;BME280;22607;49.550;11.940;2023-07-09T03:08:50;97338.56;;;16.66;93.27
36598;BME280;22607;49.550;11.940;2023-07-09T03:11:19;97341.19;;;16.66;92.72
36598;BME280;22607;49.550;11.940;2023-07-09T03:13:47;97340.56;;;16.64;92.15
36598;BME280;22607;49.550;11.940;2023-07-09T03:16:14;97336.69;;;16.60;92.19
36598;BME280;22607;49.550;11.940;2023-07-09T03:18:42;97341.41;;;16.71;91.44
36598;BME280;22607;49.550;11.940;2023-07-09T03:21:08;97353.22;;;16.62;94.55
36598;BME280;22607;49.550;11.940;2023-07-09T03:23:35;97350.72;;;16.53;92.67
36598;BME280;22607;49.550;11.940;2023-07-09T03:26:01;97361.75;;;16.57;94.67
36598;BME280;22607;49.550;11.940;2023-07-09T03:28:31;97356.91;;;16.61;93.53
36598;BME280;22607;49.550;11.940;2023-07-09T03:30:58;97360.59;;;16.73;91.25
36598;BME280;22607;49.550;11.940;2023-07-09T03:33:25;97358.13;;;16.65;91.54
36598;BME280;22607;49.550;11.940;2023-07-09T03:35:51;97362.00;;;16.62;91.42
36598;BME280;22607;49.550;11.940;2023-07-09T03:38:18;97366.00;;;16.45;94.28
36598;BME280;22607;49.550;11.940;2023-07-09T03:40:45;97368.22;;;16.41;93.77
36598;BME280;22607;49.550;11.940;2023-07-09T03:43:11;97355.81;;;16.48;92.83
36598;BME280;22607;49.550;11.940;2023-07-09T03:45:38;97367.50;;;16.61;92.24
36598;BME280;22607;49.550;11.940;2023-07-09T03:48:05;97368.25;;;16.48;96.25
36598;BME280;22607;49.550;11.940;2023-07-09T03:50:32;97367.31;;;16.69;94.55
36598;BME280;22607;49.550;11.940;2023-07-09T03:52:59;97366.34;;;16.77;92.36
36598;BME280;22607;49.550;11.940;2023-07-09T03:55:26;97364.66;;;16.69;93.05
36598;BME280;22607;49.550;11.940;2023-07-09T03:57:54;97370.44;;;16.79;94.28
36598;BME280;22607;49.550;11.940;2023-07-09T04:00:21;97362.47;;;16.79;95.60
36598;BME280;22607;49.550;11.940;2023-07-09T04:02:48;97366.34;;;16.77;94.50
36598;BME280;22607;49.550;11.940;2023-07-09T04:05:15;97364.91;;;16.88;93.77
36598;BME280;22607;49.550;11.940;2023-07-09T04:07:41;97359.38;;;16.76;96.25
36598;BME280;22607;49.550;11.940;2023-07-09T04:10:08;97364.31;;;16.86;96.70
36598;BME280;22607;49.550;11.940;2023-07-09T04:12:35;97366.34;;;16.84;96.84
36598;BME280;22607;49.550;11.940;2023-07-09T04:15:04;97350.03;;;16.87;95.22
36598;BME280;22607;49.550;11.940;2023-07-09T04:17:31;97365.94;;;16.87;94.81
36598;BME280;22607;49.550;11.940;2023-07-09T04:19:59;97367.56;;;16.88;96.50
36598;BME280;22607;49.550;11.940;2023-07-09T04:22:25;97367.19;;;16.91;95.38
36598;BME280;22607;49.550;11.940;2023-07-09T04:24:52;97361.50;;;17.01;97.23
36598;BME280;22607;49.550;11.940;2023-07-09T04:27:19;97365.16;;;16.93;98.38
36598;BME280;22607;49.550;11.940;2023-07-09T04:29:46;97377.78;;;16.84;100.00
36598;BME280;22607;49.550;11.940;2023-07-09T04:32:14;97374.53;;;16.89;100.00
36598;BME280;22607;49.550;11.940;2023-07-09T04:34:41;97376.13;;;16.76;100.00
36598;BME280;22607;49.550;11.940;2023-07-09T04:37:09;97371.66;;;16.84;100.00
36598;BME280;22607;49.550;11.940;2023-07-09T04:39:38;97379.88;;;17.02;100.00
36598;BME280;22607;49.550;11.940;2023-07-09T04:42:06;97377.13;;;17.78;93.66
36598;BME280;22607;49.550;11.940;2023-07-09T04:44:32;97375.38;;;18.52;86.18
36598;BME280;22607;49.550;11.940;2023-07-09T04:47:03;97373.28;;;19.06;81.76
36598;BME280;22607;49.550;11.940;2023-07-09T04:49:30;97373.47;;;19.44;77.34
36598;BME280;22607;49.550;11.940;2023-07-09T04:51:56;97369.00;;;19.37;81.16
36598;BME280;22607;49.550;11.940;2023-07-09T04:54:26;97373.72;;;19.86;76.82
36598;BME280;22607;49.550;11.940;2023-07-09T04:56:53;97375.97;;;20.52;71.75
36598;BME280;22607;49.550;11.940;2023-07-09T04:59:20;97369.13;;;20.94;68.72
36598;BME280;22607;49.550;11.940;2023-07-09T05:01:47;97380.72;;;21.18;66.21
36598;BME280;22607;49.550;11.940;2023-07-09T05:04:13;97368.06;;;21.25;65.47
36598;BME280;22607;49.550;11.940;2023-07-09T05:06:40;97378.59;;;21.63;62.98
36598;BME280;22607;49.550;11.940;2023-07-09T05:09:06;97370.47;;;22.17;61.25
36598;BME280;22607;49.550;11.940;2023-07-09T05:11:35;97371.53;;;22.16;60.44
36598;BME280;22607;49.550;11.940;2023-07-09T05:14:03;97382.72;;;22.13;59.85
36598;BME280;22607;49.550;11.940;2023-07-09T05:16:32;97382.19;;;22.40;58.36
36598;BME280;22607;49.550;11.940;2023-07-09T05:18:59;97380.31;;;22.65;57.94
36598;BME280;22607;49.550;11.940;2023-07-09T05:21:25;97384.94;;;23.11;57.20
36598;BME280;22607;49.550;11.940;2023-07-09T05:23:52;97379.56;;;23.40;54.40
36598;BME280;22607;49.550;11.940;2023-07-09T05:26:18;97369.84;;;23.21;53.51
36598;BME280;22607;49.550;11.940;2023-07-09T05:28:45;97367.63;;;23.65;51.57
36598;BME280;22607;49.550;11.940;2023-07-09T05:31:11;97392.03;;;23.63;50.05
36598;BME280;22607;49.550;11.940;2023-07-09T05:33:38;97380.47;;;23.63;50.23
36598;BME280;22607;49.550;11.940;2023-07-09T05:36:05;97368.59;;;23.58;50.29
36598;BME280;22607;49.550;11.940;2023-07-09T05:38:33;97377.88;;;23.68;49.66
36598;BME280;22607;49.550;11.940;2023-07-09T05:41:02;97381.28;;;23.80;49.45
36598;BME280;22607;49.550;11.940;2023-07-09T05:43:30;97375.09;;;23.97;49.11
36598;BME280;22607;49.550;11.940;2023-07-09T05:45:58;97382.09;;;23.98;48.00
36598;BME280;22607;49.550;11.940;2023-07-09T05:48:24;97390.38;;;24.14;48.02
36598;BME280;22607;49.550;11.940;2023-07-09T05:50:53;97376.38;;;24.11;47.81
36598;BME280;22607;49.550;11.940;2023-07-09T05:53:21;97392.00;;;24.15;47.51
36598;BME280;22607;49.550;11.940;2023-07-09T05:55:48;97388.25;;;24.16;47.97
36598;BME280;22607;49.550;11.940;2023-07-09T05:58:15;97375.91;;;24.15;47.69
36598;BME280;22607;49.550;11.940;2023-07-09T06:00:42;97382.94;;;24.60;47.76
36598;BME280;22607;49.550;11.940;2023-07-09T06:03:10;97381.47;;;24.97;46.69
36598;BME280;22607;49.550;11.940;2023-07-09T06:05:37;97386.53;;;25.21;46.66
36598;BME280;22607;49.550;11.940;2023-07-09T06:08:04;97382.03;;;25.27;46.02
36598;BME280;22607;49.550;11.940;2023-07-09T06:10:31;97375.09;;;25.31;45.52
36598;BME280;22607;49.550;11.940;2023-07-09T06:13:03;97381.44;;;25.20;45.57
36598;BME280;22607;49.550;11.940;2023-07-09T06:15:29;97378.75;;;25.20;46.68
36598;BME280;22607;49.550;11.940;2023-07-09T06:17:56;97374.97;;;25.76;45.44
36598;BME280;22607;49.550;11.940;2023-07-09T06:20:22;97371.00;;;25.89;44.12
36598;BME280;22607;49.550;11.940;2023-07-09T06:22:49;97369.78;;;26.12;43.61
36598;BME280;22607;49.550;11.940;2023-07-09T06:25:15;97376.41;;;26.32;43.20
36598;BME280;22607;49.550;11.940;2023-07-09T06:27:42;97375.84;;;26.35;43.32
36598;BME280;22607;49.550;11.940;2023-07-09T06:30:09;97375.47;;;26.69;42.92
36598;BME280;22607;49.550;11.940;2023-07-09T06:32:35;97380.44;;;26.98;42.00
36598;BME280;22607;49.550;11.940;2023-07-09T06:35:02;97382.88;;;27.05;42.02
36598;BME280;22607;49.550;11.940;2023-07-09T06:37:29;97365.50;;;26.70;41.99
36598;BME280;22607;49.550;11.940;2023-07-09T06:39:56;97383.97;;;27.35;41.88
36598;BME280;22607;49.550;11.940;2023-07-09T06:42:24;97374.56;;;27.59;41.58
36598;BME280;22607;49.550;11.940;2023-07-09T06:44:51;97384.81;;;27.41;42.07
36598;BME280;22607;49.550;11.940;2023-07-09T06:47:17;97363.75;;;28.00;40.98
36598;BME280;22607;49.550;11.940;2023-07-09T06:49:44;97387.00;;;27.86;41.26
36598;BME280;22607;49.550;11.940;2023-07-09T06:52:10;97375.59;;;28.10;41.02
36598;BME280;22607;49.550;11.940;2023-07-09T06:54:37;97381.50;;;28.38;40.01
36598;BME280;22607;49.550;11.940;2023-07-09T06:57:04;97379.09;;;28.21;41.10
36598;BME280;22607;49.550;11.940;2023-07-09T06:59:30;97374.34;;;28.68;38.92
36598;BME280;22607;49.550;11.940;2023-07-09T07:01:57;97381.78;;;28.97;38.81
36598;BME280;22607;49.550;11.940;2023-07-09T07:04:26;97384.59;;;29.21;37.93
36598;BME280;22607;49.550;11.940;2023-07-09T07:06:53;97372.91;;;29.31;37.74
36598;BME280;22607;49.550;11.940;2023-07-09T07:09:22;97367.63;;;29.56;38.71
36598;BME280;22607;49.550;11.940;2023-07-09T07:15:19;97374.59;;;29.92;37.30
36598;BME280;22607;49.550;11.940;2023-07-09T07:17:46;97373.78;;;29.91;37.53
36598;BME280;22607;49.550;11.940;2023-07-09T07:20:14;97371.25;;;30.00;38.02
36598;BME280;22607;49.550;11.940;2023-07-09T07:22:40;97364.06;;;30.20;36.55
36598;BME280;22607;49.550;11.940;2023-07-09T07:25:08;97373.31;;;30.13;37.21
36598;BME280;22607;49.550;11.940;2023-07-09T07:27:36;97365.88;;;30.49;36.13
36598;BME280;22607;49.550;11.940;2023-07-09T07:30:04;97372.69;;;30.46;38.23
36598;BME280;22607;49.550;11.940;2023-07-09T07:32:30;97368.03;;;30.52;37.61
36598;BME280;22607;49.550;11.940;2023-07-09T07:34:57;97355.25;;;30.77;36.42
36598;BME280;22607;49.550;11.940;2023-07-09T07:37:24;97350.13;;;30.95;36.34
36598;BME280;22607;49.550;11.940;2023-07-09T07:39:50;97353.09;;;31.51;35.76
36598;BME280;22607;49.550;11.940;2023-07-09T07:42:17;97340.66;;;31.30;34.78
36598;BME280;22607;49.550;11.940;2023-07-09T07:44:44;97346.44;;;31.24;35.04
36598;BME280;22607;49.550;11.940;2023-07-09T07:47:11;97348.03;;;31.25;35.04
36598;BME280;22607;49.550;11.940;2023-07-09T07:49:38;97353.06;;;31.17;34.89
36598;BME280;22607;49.550;11.940;2023-07-09T07:52:06;97351.63;;;31.73;35.26
36598;BME280;22607;49.550;11.940;2023-07-09T07:54:33;97357.38;;;31.18;35.02
36598;BME280;22607;49.550;11.940;2023-07-09T07:57:00;97353.59;;;31.53;35.18
36598;BME280;22607;49.550;11.940;2023-07-09T07:59:28;97348.84;;;31.78;34.81
36598;BME280;22607;49.550;11.940;2023-07-09T08:01:55;97344.84;;;31.89;34.38
36598;BME280;22607;49.550;11.940;2023-07-09T08:04:21;97359.06;;;32.28;34.24
36598;BME280;22607;49.550;11.940;2023-07-09T08:06:48;97355.75;;;32.59;33.50
36598;BME280;22607;49.550;11.940;2023-07-09T08:09:15;97337.22;;;32.47;33.60
36598;BME280;22607;49.550;11.940;2023-07-09T08:11:42;97344.88;;;32.45;33.72
36598;BME280;22607;49.550;11.940;2023-07-09T08:14:10;97347.50;;;32.51;33.90
36598;BME280;22607;49.550;11.940;2023-07-09T08:16:38;97356.34;;;32.28;34.03
36598;BME280;22607;49.550;11.940;2023-07-09T08:19:04;97345.25;;;32.67;33.76
36598;BME280;22607;49.550;11.940;2023-07-09T08:21:31;97339.13;;;32.98;32.90
36598;BME280;22607;49.550;11.940;2023-07-09T08:23:58;97333.78;;;32.42;33.71
36598;BME280;22607;49.550;11.940;2023-07-09T08:26:24;97332.78;;;33.25;33.02
36598;BME280;22607;49.550;11.940;2023-07-09T08:28:52;97326.31;;;33.35;33.06
36598;BME280;22607;49.550;11.940;2023-07-09T08:31:19;97329.56;;;33.69;32.80
36598;BME280;22607;49.550;11.940;2023-07-09T08:33:46;97338.22;;;33.71;31.25
36598;BME280;22607;49.550;11.940;2023-07-09T08:36:14;97339.00;;;34.03;30.00
36598;BME280;22607;49.550;11.940;2023-07-09T08:38:41;97339.72;;;34.18;29.49
36598;BME280;22607;49.550;11.940;2023-07-09T08:41:31;97330.13;;;34.21;29.36
36598;BME280;22607;49.550;11.940;2023-07-09T08:47:10;97337.50;;;33.57;29.50
36598;BME280;22607;49.550;11.940;2023-07-09T08:49:59;97343.25;;;33.32;29.63
36598;BME280;22607;49.550;11.940;2023-07-09T08:55:00;97327.44;;;33.98;29.39
36598;BME280;22607;49.550;11.940;2023-07-09T08:57:36;97336.28;;;34.03;29.70
36598;BME280;22607;49.550;11.940;2023-07-09T09:00:18;97321.53;;;34.04;28.49
36598;BME280;22607;49.550;11.940;2023-07-09T09:02:52;97310.00;;;34.66;28.59
36598;BME280;22607;49.550;11.940;2023-07-09T09:05:23;97329.94;;;34.93;28.13
36598;BME280;22607;49.550;11.940;2023-07-09T09:07:57;97327.84;;;34.99;27.97
36598;BME280;22607;49.550;11.940;2023-07-09T09:10:48;97325.44;;;34.71;28.54
36598;BME280;22607;49.550;11.940;2023-07-09T09:13:20;97324.00;;;35.17;27.30
36598;BME280;22607;49.550;11.940;2023-07-09T09:15:50;97330.38;;;35.48;27.07
36598;BME280;22607;49.550;11.940;2023-07-09T09:18:22;97332.09;;;35.61;27.72
36598;BME280;22607;49.550;11.940;2023-07-09T09:20:55;97326.97;;;35.60;27.72
36598;BME280;22607;49.550;11.940;2023-07-09T09:23:31;97317.00;;;35.55;26.44
36598;BME280;22607;49.550;11.940;2023-07-09T09:26:09;97326.00;;;35.73;26.06
36598;BME280;22607;49.550;11.940;2023-07-09T09:28:40;97330.22;;;35.35;27.08
36598;BME280;22607;49.550;11.940;2023-07-09T09:31:10;97317.06;;;35.94;26.80
36598;BME280;22607;49.550;11.940;2023-07-09T09:33:40;97332.47;;;34.98;26.85
36598;BME280;22607;49.550;11.940;2023-07-09T09:36:14;97326.50;;;35.67;26.82
36598;BME280;22607;49.550;11.940;2023-07-09T09:38:42;97323.03;;;35.87;26.19
36598;BME280;22607;49.550;11.940;2023-07-09T09:41:21;97316.94;;;35.91;26.70
36598;BME280;22607;49.550;11.940;2023-07-09T09:43:50;97319.53;;;35.78;26.15
36598;BME280;22607;49.550;11.940;2023-07-09T09:46:20;97325.69;;;35.75;25.59
36598;BME280;22607;49.550;11.940;2023-07-09T09:48:53;97313.94;;;35.74;26.16
36598;BME280;22607;49.550;11.940;2023-07-09T09:51:23;97304.16;;;35.65;25.27
36598;BME280;22607;49.550;11.940;2023-07-09T09:53:52;97325.16;;;36.21;25.22
36598;BME280;22607;49.550;11.940;2023-07-09T09:56:33;97315.78;;;36.31;24.61
36598;BME280;22607;49.550;11.940;2023-07-09T09:59:00;97317.69;;;36.39;24.22
36598;BME280;22607;49.550;11.940;2023-07-09T10:01:30;97318.25;;;35.84;23.77
36598;BME280;22607;49.550;11.940;2023-07-09T10:03:59;97311.38;;;35.60;23.68
36598;BME280;22607;49.550;11.940;2023-07-09T10:11:46;97318.66;;;36.34;22.65
36598;BME280;22607;49.550;11.940;2023-07-09T10:14:27;97318.28;;;36.45;23.51
36598;BME280;22607;49.550;11.940;2023-07-09T10:17:20;97320.22;;;36.05;24.69
36598;BME280;22607;49.550;11.940;2023-07-09T10:19:59;97315.72;;;36.39;23.18
36598;BME280;22607;49.550;11.940;2023-07-09T10:25:14;97321.69;;;36.42;23.85
36598;BME280;22607;49.550;11.940;2023-07-09T10:28:01;97313.66;;;36.36;23.11
36598;BME280;22607;49.550;11.940;2023-07-09T10:30:49;97317.03;;;36.63;22.88
36598;BME280;22607;49.550;11.940;2023-07-09T10:33:35;97306.97;;;36.98;22.20
36598;BME280;22607;49.550;11.940;2023-07-09T10:39:07;97299.00;;;36.41;22.12
36598;BME280;22607;49.550;11.940;2023-07-09T10:41:38;97303.50;;;36.88;22.00
36598;BME280;22607;49.550;11.940;2023-07-09T10:44:35;97302.19;;;36.13;23.07
36598;BME280;22607;49.550;11.940;2023-07-09T10:47:12;97291.31;;;36.98;22.30
36598;BME280;22607;49.550;11.940;2023-07-09T10:49:40;97300.41;;;37.11;21.96
36598;BME280;22607;49.550;11.940;2023-07-09T10:54:43;97294.78;;;36.74;21.43
36598;BME280;22607;49.550;11.940;2023-07-09T10:57:25;97299.38;;;36.31;22.11
36598;BME280;22607;49.550;11.940;2023-07-09T10:59:54;97295.09;;;36.94;22.00
36598;BME280;22607;49.550;11.940;2023-07-09T11:02:34;97273.13;;;36.81;21.04
36598;BME280;22607;49.550;11.940;2023-07-09T11:05:06;97286.25;;;37.09;21.72
36598;BME280;22607;49.550;11.940;2023-07-09T11:08:22;97276.56;;;37.12;21.43
36598;BME280;22607;49.550;11.940;2023-07-09T11:10:55;97287.19;;;37.47;22.29
36598;BME280;22607;49.550;11.940;2023-07-09T11:16:26;97284.59;;;36.96;21.63
36598;BME280;22607;49.550;11.940;2023-07-09T11:19:02;97252.13;;;37.40;20.91
36598;BME280;22607;49.550;11.940;2023-07-09T11:21:30;97271.63;;;37.85;20.91
36598;BME280;22607;49.550;11.940;2023-07-09T11:23:59;97267.25;;;37.72;20.35
36598;BME280;22607;49.550;11.940;2023-07-09T11:26:30;97268.03;;;37.60;21.63
36598;BME280;22607;49.550;11.940;2023-07-09T11:31:39;97264.28;;;37.64;21.06
36598;BME280;22607;49.550;11.940;2023-07-09T11:36:33;97260.38;;;36.85;21.41
36598;BME280;22607;49.550;11.940;2023-07-09T11:39:01;97261.97;;;36.86;21.57
36598;BME280;22607;49.550;11.940;2023-07-09T11:46:43;97251.56;;;37.01;21.11
36598;BME280;22607;49.550;11.940;2023-07-09T11:49:20;97257.81;;;36.68;21.35
36598;BME280;22607;49.550;11.940;2023-07-09T11:51:53;97253.31;;;36.42;21.74
36598;BME280;22607;49.550;11.940;2023-07-09T11:54:21;97252.00;;;35.87;22.37
36598;BME280;22607;49.550;11.940;2023-07-09T11:56:58;97251.19;;;36.26;21.87
36598;BME280;22607;49.550;11.940;2023-07-09T11:59:26;97239.78;;;36.67;21.81
36598;BME280;22607;49.550;11.940;2023-07-09T12:01:53;97236.09;;;36.62;21.62
36598;BME280;22607;49.550;11.940;2023-07-09T12:04:26;97247.25;;;36.78;22.17
36598;BME280;22607;49.550;11.940;2023-07-09T12:06:59;97237.16;;;36.49;21.73
36598;BME280;22607;49.550;11.940;2023-07-09T12:09:33;97252.88;;;36.82;21.59
36598;BME280;22607;49.550;11.940;2023-07-09T12:12:03;97235.75;;;36.73;21.63
36598;BME280;22607;49.550;11.940;2023-07-09T12:14:30;97231.06;;;36.73;22.59
36598;BME280;22607;49.550;11.940;2023-07-09T12:16:57;97231.34;;;36.93;22.19
36598;BME280;22607;49.550;11.940;2023-07-09T12:19:24;97240.06;;;36.31;22.15
36598;BME280;22607;49.550;11.940;2023-07-09T12:21:53;97241.75;;;35.84;22.86
36598;BME280;22607;49.550;11.940;2023-07-09T12:24:30;97240.50;;;35.73;23.17
36598;BME280;22607;49.550;11.940;2023-07-09T12:27:02;97250.88;;;35.89;22.92
36598;BME280;22607;49.550;11.940;2023-07-09T12:29:31;97230.66;;;35.90;22.09
36598;BME280;22607;49.550;11.940;2023-07-09T12:32:06;97210.56;;;36.16;21.95
36598;BME280;22607;49.550;11.940;2023-07-09T12:34:36;97216.72;;;36.55;22.28
36598;BME280;22607;49.550;11.940;2023-07-09T12:37:03;97216.22;;;36.74;21.88
36598;BME280;22607;49.550;11.940;2023-07-09T12:39:32;97224.69;;;36.82;21.78
36598;BME280;22607;49.550;11.940;2023-07-09T12:42:02;97220.97;;;36.65;22.72
36598;BME280;22607;49.550;11.940;2023-07-09T12:44:31;97209.59;;;36.11;22.60
36598;BME280;22607;49.550;11.940;2023-07-09T12:47:00;97209.66;;;36.75;23.77
36598;BME280;22607;49.550;11.940;2023-07-09T12:49:36;97213.13;;;37.43;21.53
36598;BME280;22607;49.550;11.940;2023-07-09T12:52:19;97194.41;;;37.46;21.46
36598;BME280;22607;49.550;11.940;2023-07-09T12:54:59;97200.78;;;37.25;22.22
36598;BME280;22607;49.550;11.940;2023-07-09T12:57:27;97197.72;;;37.26;21.85
36598;BME280;22607;49.550;11.940;2023-07-09T12:59:55;97191.66;;;37.33;20.51
36598;BME280;22607;49.550;11.940;2023-07-09T13:02:23;97196.66;;;37.19;21.01
36598;BME280;22607;49.550;11.940;2023-07-09T13:05:00;97193.75;;;37.02;21.63
36598;BME280;22607;49.550;11.940;2023-07-09T13:07:34;97185.94;;;36.58;22.22
36598;BME280;22607;49.550;11.940;2023-07-09T13:10:22;97191.47;;;36.07;22.78
36598;BME280;22607;49.550;11.940;2023-07-09T13:12:51;97178.13;;;37.03;22.52
36598;BME280;22607;49.550;11.940;2023-07-09T13:15:39;97182.13;;;37.06;22.28
36598;BME280;22607;49.550;11.940;2023-07-09T13:18:10;97182.09;;;37.39;23.41
36598;BME280;22607;49.550;11.940;2023-07-09T13:20:39;97176.41;;;37.57;20.51
36598;BME280;22607;49.550;11.940;2023-07-09T13:23:27;97176.31;;;37.07;20.53
36598;BME280;22607;49.550;11.940;2023-07-09T13:25:55;97183.94;;;36.68;22.13
36598;BME280;22607;49.550;11.940;2023-07-09T13:28:28;97176.97;;;37.04;21.03
36598;BME280;22607;49.550;11.940;2023-07-09T13:31:00;97172.81;;;36.51;21.02
36598;BME280;22607;49.550;11.940;2023-07-09T13:33:28;97171.28;;;36.63;20.63
36598;BME280;22607;49.550;11.940;2023-07-09T13:35:56;97157.81;;;36.58;21.61
36598;BME280;22607;49.550;11.940;2023-07-09T13:38:23;97178.19;;;36.82;21.26
36598;BME280;22607;49.550;11.940;2023-07-09T13:40:54;97156.09;;;36.87;21.17
36598;BME280;22607;49.550;11.940;2023-07-09T13:43:29;97169.34;;;36.42;21.28